Time;durP1;ratioP1;P1;durP2;ratioP2;P2;SDS_P1;SDS_P2;PMS_P1;PMS_P2;Temp;Humidity;BMP_temperature;BMP_pressure;BME280_temperature;BME280_humidity;BME280_pressure;Samples;Min_cycle;Max_cycle;Signal;HPM_P1;HPM_P2
2022/07/05 00:00:37;;;;;;;7.85;2.33;;;12.80;99.90;;;;;;6101896;23;20025;-94
2022/07/05 00:03:03;;;;;;;3.50;1.92;;;12.80;99.90;;;;;;6101379;23;20032;-95
2022/07/05 00:05:29;;;;;;;4.70;1.88;;;12.70;99.90;;;;;;6100804;23;20020;-95
2022/07/05 00:07:55;;;;;;;5.53;2.40;;;12.60;99.90;;;;;;6101950;23;20107;-94
2022/07/05 00:10:20;;;;;;;8.05;2.50;;;12.60;99.90;;;;;;6101859;23;20025;-95
2022/07/05 00:12:46;;;;;;;5.13;2.03;;;12.60;99.90;;;;;;6102215;23;20040;-95
2022/07/05 00:15:12;;;;;;;5.97;1.80;;;12.50;99.90;;;;;;6101528;23;20094;-95
2022/07/05 00:17:38;;;;;;;8.15;2.30;;;12.50;99.90;;;;;;6101971;23;20026;-95
2022/07/05 00:20:04;;;;;;;7.47;2.20;;;12.40;99.90;;;;;;6102041;23;20068;-95
2022/07/05 00:22:30;;;;;;;7.40;2.05;;;12.30;99.90;;;;;;6101887;23;20106;-96
2022/07/05 00:24:56;;;;;;;4.93;1.98;;;12.30;99.90;;;;;;6101657;23;20018;-94
2022/07/05 00:27:22;;;;;;;7.13;2.50;;;12.30;99.90;;;;;;6101795;23;20024;-95
2022/07/05 00:29:47;;;;;;;7.70;2.80;;;12.30;99.90;;;;;;6101057;23;20013;-95
2022/07/05 00:32:13;;;;;;;3.13;2.33;;;12.30;99.90;;;;;;6101685;23;20024;-94
2022/07/05 00:34:39;;;;;;;10.02;2.50;;;12.30;99.90;;;;;;6101558;23;20029;-95
2022/07/05 00:37:04;;;;;;;8.95;2.35;;;12.30;99.90;;;;;;6101698;23;20025;-94
2022/07/05 00:39:30;;;;;;;5.93;2.60;;;12.30;99.90;;;;;;6101713;23;20028;-94
2022/07/05 00:41:56;;;;;;;8.57;2.40;;;12.20;99.90;;;;;;6101553;23;20025;-95
2022/07/05 00:44:31;;;;;;;5.55;2.35;;;12.20;99.90;;;;;;6101307;23;20346;-95
2022/07/05 00:46:57;;;;;;;7.00;2.60;;;12.20;99.90;;;;;;6101555;23;20100;-95
2022/07/05 00:49:23;;;;;;;7.68;2.78;;;12.10;99.90;;;;;;6101697;23;20076;-96
2022/07/05 00:51:49;;;;;;;6.20;2.65;;;12.10;99.90;;;;;;6101235;23;20438;-96
2022/07/05 00:54:14;;;;;;;8.63;2.70;;;12.00;99.90;;;;;;6101482;23;20029;-95
2022/07/05 00:56:40;;;;;;;5.82;3.55;;;12.00;99.90;;;;;;6101502;23;20510;-95
2022/07/05 00:59:06;;;;;;;6.28;3.50;;;11.80;99.90;;;;;;6101547;23;20046;-94
2022/07/05 01:01:32;;;;;;;10.68;4.65;;;11.80;99.90;;;;;;6101461;23;20469;-95
2022/07/05 01:03:57;;;;;;;7.55;4.40;;;11.80;99.90;;;;;;6101312;23;20083;-96
2022/07/05 01:06:23;;;;;;;15.43;5.57;;;11.80;99.90;;;;;;6101650;23;20183;-95
2022/07/05 01:08:49;;;;;;;9.27;5.05;;;11.90;99.90;;;;;;6101535;23;20077;-94
2022/07/05 01:11:15;;;;;;;7.72;4.63;;;11.90;99.90;;;;;;6101712;23;20029;-94
2022/07/05 01:13:41;;;;;;;8.90;5.22;;;12.00;99.90;;;;;;6101432;23;20017;-95
2022/07/05 01:16:08;;;;;;;10.43;4.40;;;12.00;99.90;;;;;;6101161;23;20071;-95
2022/07/05 01:18:34;;;;;;;8.95;4.30;;;12.10;99.90;;;;;;6099866;23;20021;-95
2022/07/05 01:21:02;;;;;;;6.10;3.83;;;12.00;99.90;;;;;;6100360;23;20013;-94
2022/07/05 01:23:30;;;;;;;7.03;4.43;;;11.90;99.90;;;;;;6101329;23;20020;-95
2022/07/05 01:25:57;;;;;;;6.40;4.35;;;11.90;99.90;;;;;;6101331;23;20013;-95
2022/07/05 01:28:23;;;;;;;5.30;4.35;;;11.90;99.90;;;;;;6100733;23;20025;-95
2022/07/05 01:30:50;;;;;;;10.82;4.50;;;11.90;99.90;;;;;;6100357;23;20010;-95
2022/07/05 01:33:15;;;;;;;6.68;3.95;;;11.90;99.90;;;;;;6099022;23;20057;-95
2022/07/05 01:35:41;;;;;;;6.60;3.80;;;11.90;99.90;;;;;;6101356;23;20017;-94
2022/07/05 01:38:10;;;;;;;5.85;3.55;;;11.90;99.90;;;;;;6101148;23;20319;-96
2022/07/05 01:40:35;;;;;;;6.38;3.38;;;11.90;99.90;;;;;;6101230;23;20024;-94
2022/07/05 01:43:02;;;;;;;6.82;4.32;;;11.80;99.90;;;;;;6101382;23;20092;-95
2022/07/05 01:45:41;;;;;;;8.30;3.90;;;11.70;99.90;;;;;;6101625;23;20533;-95
2022/07/05 01:48:09;;;;;;;8.50;4.40;;;11.80;99.90;;;;;;6101373;23;20025;-95
2022/07/05 01:50:41;;;;;;;6.80;4.55;;;11.60;99.90;;;;;;6101003;23;20018;-95
2022/07/05 01:53:14;;;;;;;9.68;7.22;;;11.60;99.90;;;;;;6100178;23;20399;-95
2022/07/05 01:55:39;;;;;;;12.10;8.95;;;11.60;99.90;;;;;;6101252;23;20045;-94
2022/07/05 01:58:06;;;;;;;13.77;8.63;;;11.60;99.90;;;;;;6101295;23;20017;-94
2022/07/05 02:00:42;;;;;;;12.18;8.75;;;11.60;99.90;;;;;;6101135;23;20096;-95
2022/07/05 02:03:07;;;;;;;12.98;7.45;;;11.70;99.90;;;;;;6100938;23;20024;-94
2022/07/05 02:05:33;;;;;;;16.95;9.75;;;11.60;99.90;;;;;;6101682;23;20096;-95
2022/07/05 02:07:59;;;;;;;11.77;7.30;;;11.60;99.90;;;;;;6101522;23;20021;-95
2022/07/05 02:10:24;;;;;;;8.50;6.07;;;11.50;99.90;;;;;;6101288;23;20021;-95
2022/07/05 02:12:50;;;;;;;8.02;6.50;;;11.50;99.90;;;;;;6101167;23;20018;-95
2022/07/05 02:15:16;;;;;;;11.30;6.75;;;11.50;99.90;;;;;;6101659;23;20080;-95
2022/07/05 02:17:41;;;;;;;9.85;6.57;;;11.50;99.90;;;;;;6102061;23;20021;-95
2022/07/05 02:20:07;;;;;;;8.93;6.38;;;11.40;99.90;;;;;;6100552;23;20092;-95
2022/07/05 02:22:33;;;;;;;12.02;5.80;;;11.40;99.90;;;;;;6101647;23;20026;-95
2022/07/05 02:24:59;;;;;;;11.07;5.60;;;11.40;99.90;;;;;;6100992;23;20017;-96
2022/07/05 02:27:25;;;;;;;9.60;5.25;;;11.40;99.90;;;;;;6100509;23;20014;-95
2022/07/05 02:29:51;;;;;;;7.72;5.53;;;11.50;99.90;;;;;;6101329;23;20098;-95
2022/07/05 02:32:16;;;;;;;9.30;4.95;;;11.70;99.90;;;;;;6101207;23;20446;-96
2022/07/05 02:34:42;;;;;;;11.45;5.05;;;11.50;99.90;;;;;;6100979;23;20036;-96
2022/07/05 02:37:08;;;;;;;10.38;4.88;;;11.60;99.90;;;;;;6101001;23;20093;-95
2022/07/05 02:39:33;;;;;;;8.43;5.28;;;11.60;99.90;;;;;;6101084;23;20021;-95
2022/07/05 02:41:59;;;;;;;6.82;4.45;;;11.60;99.90;;;;;;6101535;23;20472;-96
2022/07/05 02:44:25;;;;;;;9.30;4.93;;;11.60;99.90;;;;;;6101176;23;20037;-95
2022/07/05 02:46:50;;;;;;;7.40;4.55;;;11.60;99.90;;;;;;6100967;23;20047;-95
2022/07/05 02:49:16;;;;;;;10.10;4.80;;;11.60;99.90;;;;;;6100947;23;20330;-95
2022/07/05 02:51:42;;;;;;;10.85;5.03;;;11.60;99.90;;;;;;6101174;23;20072;-96
2022/07/05 02:54:07;;;;;;;9.57;4.60;;;11.70;99.90;;;;;;6101845;23;20051;-95
2022/07/05 02:56:33;;;;;;;8.77;4.88;;;11.70;99.90;;;;;;6101936;23;20010;-95
2022/07/05 02:58:59;;;;;;;11.70;4.60;;;11.70;99.90;;;;;;6101785;23;20551;-95
2022/07/05 03:01:24;;;;;;;9.80;4.38;;;11.70;99.90;;;;;;6101768;23;20021;-95
2022/07/05 03:03:50;;;;;;;7.60;4.22;;;11.70;99.90;;;;;;6102067;23;20020;-96
2022/07/05 03:06:16;;;;;;;7.63;4.90;;;11.60;99.90;;;;;;6101613;23;20024;-95
2022/07/05 03:08:42;;;;;;;8.93;4.07;;;11.60;99.90;;;;;;6101015;23;20016;-96
2022/07/05 03:11:08;;;;;;;8.30;4.25;;;11.50;99.90;;;;;;6101431;23;20017;-95
2022/07/05 03:13:33;;;;;;;7.65;4.10;;;11.40;99.90;;;;;;6102030;23;20017;-95
2022/07/05 03:15:59;;;;;;;8.13;4.00;;;11.40;99.90;;;;;;6101661;23;20146;-94
2022/07/05 03:18:25;;;;;;;5.70;4.25;;;11.40;99.90;;;;;;6101379;23;20017;-96
2022/07/05 03:20:50;;;;;;;5.68;4.00;;;11.20;99.90;;;;;;6103388;23;20079;-94
2022/07/05 03:23:16;;;;;;;10.80;5.68;;;11.20;99.90;;;;;;6101638;23;20079;-95
2022/07/05 03:25:42;;;;;;;8.52;4.88;;;11.20;99.90;;;;;;6101711;23;20096;-95
2022/07/05 03:28:07;;;;;;;13.32;5.15;;;11.20;99.90;;;;;;6101814;23;20033;-95
2022/07/05 03:30:33;;;;;;;7.35;4.47;;;11.20;99.90;;;;;;6101642;23;20438;-96
2022/07/05 03:32:59;;;;;;;12.52;5.10;;;11.30;99.90;;;;;;6102666;23;20024;-95
2022/07/05 03:35:26;;;;;;;11.63;5.65;;;11.30;99.90;;;;;;6103304;23;20021;-95
2022/07/05 03:37:51;;;;;;;8.60;4.70;;;11.30;99.90;;;;;;6101823;23;20509;-95
2022/07/05 03:40:17;;;;;;;7.68;5.00;;;11.30;99.90;;;;;;6101918;23;20060;-95
2022/07/05 03:42:43;;;;;;;9.10;5.18;;;11.30;99.90;;;;;;6106140;23;20100;-95
2022/07/05 03:45:09;;;;;;;10.02;5.40;;;11.30;99.90;;;;;;6102110;23;20017;-94
2022/07/05 03:47:35;;;;;;;7.32;4.65;;;11.40;99.90;;;;;;6102786;23;20485;-96
2022/07/05 03:50:00;;;;;;;7.97;4.82;;;11.40;99.90;;;;;;6101927;23;20013;-96
2022/07/05 03:52:26;;;;;;;9.65;5.25;;;11.50;99.90;;;;;;6101904;23;20086;-95
2022/07/05 03:54:52;;;;;;;8.10;5.30;;;11.50;99.90;;;;;;6101794;23;20020;-96
2022/07/05 03:57:18;;;;;;;9.27;5.10;;;11.60;99.90;;;;;;6101893;23;20445;-96
2022/07/05 03:59:44;;;;;;;8.77;5.45;;;11.50;99.90;;;;;;6115250;23;20017;-96
2022/07/05 04:02:09;;;;;;;7.85;5.13;;;11.60;99.90;;;;;;6102019;23;20021;-96
2022/07/05 04:04:35;;;;;;;7.65;5.50;;;11.60;99.90;;;;;;6102180;23;20021;-95
2022/07/05 04:07:01;;;;;;;7.20;4.60;;;11.60;99.90;;;;;;6102340;23;20449;-96
2022/07/05 04:09:27;;;;;;;11.27;5.30;;;11.70;99.90;;;;;;6102069;23;20100;-95
2022/07/05 04:11:53;;;;;;;7.22;4.72;;;11.70;99.90;;;;;;6101158;23;20434;-95
2022/07/05 04:14:18;;;;;;;8.02;4.70;;;11.80;99.90;;;;;;6100822;23;20079;-95
2022/07/05 04:16:44;;;;;;;8.05;5.03;;;11.80;99.90;;;;;;6101831;23;20013;-96
2022/07/05 04:19:10;;;;;;;10.45;4.90;;;11.90;99.90;;;;;;6101540;23;20049;-96
2022/07/05 04:21:36;;;;;;;5.90;4.85;;;12.00;99.90;;;;;;6100775;23;20013;-96
2022/07/05 04:24:02;;;;;;;7.82;5.18;;;12.10;99.90;;;;;;6100820;23;20021;-96
2022/07/05 04:26:28;;;;;;;9.48;4.55;;;12.10;99.90;;;;;;6101871;23;20028;-96
2022/07/05 04:28:54;;;;;;;9.48;4.90;;;12.20;99.90;;;;;;6102192;23;20021;-95
2022/07/05 04:31:19;;;;;;;12.00;5.15;;;12.30;99.90;;;;;;6102074;23;20342;-96
2022/07/05 04:33:45;;;;;;;13.32;4.88;;;12.60;99.90;;;;;;6100507;23;20430;-96
2022/07/05 04:36:11;;;;;;;11.45;4.65;;;12.50;99.90;;;;;;6102636;23;20018;-94
2022/07/05 04:38:37;;;;;;;10.45;4.68;;;12.60;99.90;;;;;;6106750;23;20100;-96
2022/07/05 04:47:09;;;;;;;9.95;4.75;;;12.90;99.90;;;;;;6104139;22;20017;-96
2022/07/05 04:49:35;;;;;;;10.52;4.38;;;13.10;99.90;;;;;;6107279;23;20089;-95
2022/07/05 04:52:01;;;;;;;7.53;3.85;;;13.20;99.90;;;;;;6106775;23;20021;-95
2022/07/05 04:54:27;;;;;;;6.05;3.92;;;13.30;99.90;;;;;;6105741;23;20022;-96
2022/07/05 04:56:55;;;;;;;6.93;3.20;;;13.50;99.90;;;;;;6102521;23;20014;-96
2022/07/05 04:59:21;;;;;;;9.00;3.33;;;13.70;99.90;;;;;;6102183;23;20049;-96
2022/07/05 05:01:47;;;;;;;8.65;3.17;;;13.70;99.90;;;;;;6099669;23;20047;-96
2022/07/05 05:04:13;;;;;;;4.97;3.00;;;13.90;99.90;;;;;;6099606;23;20342;-96
2022/07/05 05:06:39;;;;;;;6.50;3.15;;;14.00;99.90;;;;;;6099843;23;20900;-96
2022/07/05 05:09:04;;;;;;;7.18;2.95;;;14.20;99.90;;;;;;6099698;23;20009;-96
2022/07/05 05:11:30;;;;;;;4.43;2.40;;;14.30;99.90;;;;;;6099452;23;20064;-96
2022/07/05 05:13:56;;;;;;;6.25;2.60;;;14.40;99.90;;;;;;6099938;23;20515;-96
2022/07/05 05:16:21;;;;;;;7.72;2.55;;;14.50;99.90;;;;;;6100747;23;20018;-96
2022/07/05 05:18:47;;;;;;;6.65;2.33;;;14.50;99.90;;;;;;6104239;23;20025;-96
2022/07/05 05:21:13;;;;;;;7.78;2.35;;;14.50;99.90;;;;;;6102043;23;20018;-96
2022/07/05 05:23:39;;;;;;;4.50;2.10;;;14.60;99.90;;;;;;6100409;23;20017;-96
2022/07/05 05:26:04;;;;;;;8.52;2.50;;;14.70;99.90;;;;;;6101567;23;20082;-96
2022/07/05 05:28:31;;;;;;;7.68;2.50;;;14.80;99.90;;;;;;6125971;23;20025;-96
2022/07/05 05:30:56;;;;;;;7.65;2.40;;;15.00;99.90;;;;;;6102147;23;20060;-96
2022/07/05 05:33:24;;;;;;;4.88;2.10;;;15.00;99.90;;;;;;6106726;23;20124;-96
2022/07/05 05:35:50;;;;;;;7.68;2.30;;;15.10;99.90;;;;;;6080202;23;20096;-96
2022/07/05 05:38:16;;;;;;;6.00;2.40;;;15.20;99.90;;;;;;6121221;23;20033;-96
2022/07/05 05:40:44;;;;;;;7.07;2.10;;;15.20;99.90;;;;;;6124774;23;20051;-96
2022/07/05 05:43:10;;;;;;;4.18;2.08;;;15.20;99.90;;;;;;6126727;23;20021;-96
2022/07/05 05:45:36;;;;;;;6.07;1.70;;;15.30;99.90;;;;;;6126927;23;20096;-96
2022/07/05 05:48:03;;;;;;;5.40;2.10;;;15.40;99.90;;;;;;6125465;23;20013;-96
2022/07/05 05:50:32;;;;;;;4.85;1.80;;;15.60;99.90;;;;;;6123881;23;20029;-96
2022/07/05 05:52:58;;;;;;;4.22;2.28;;;15.70;99.90;;;;;;6126588;23;20005;-96
2022/07/05 05:55:25;;;;;;;5.15;2.15;;;15.80;99.90;;;;;;6126772;23;20028;-96
2022/07/05 05:57:52;;;;;;;7.30;1.58;;;15.90;99.90;;;;;;6126792;23;20021;-95
2022/07/05 06:00:19;;;;;;;5.65;1.80;;;16.00;99.90;;;;;;6127429;23;20032;-96
2022/07/05 06:02:47;;;;;;;5.65;1.50;;;16.10;99.90;;;;;;6119479;23;20025;-96
2022/07/05 06:05:13;;;;;;;9.80;1.73;;;16.20;99.90;;;;;;6122441;23;20051;-96
2022/07/05 06:07:45;;;;;;;6.65;1.95;;;16.30;99.90;;;;;;6108826;23;20021;-96
2022/07/05 06:10:10;;;;;;;9.35;1.30;;;16.30;99.90;;;;;;6108509;23;20064;-96
2022/07/05 06:12:36;;;;;;;6.18;1.58;;;16.50;99.90;;;;;;6108577;23;20018;-96
2022/07/05 06:15:02;;;;;;;7.40;1.55;;;16.70;99.90;;;;;;6109816;23;20021;-96
2022/07/05 06:17:28;;;;;;;4.65;1.30;;;16.70;99.90;;;;;;6112344;23;20083;-96
2022/07/05 06:19:53;;;;;;;8.45;1.40;;;16.80;99.90;;;;;;6109717;23;20094;-96
2022/07/05 06:22:19;;;;;;;9.75;2.30;;;16.90;99.90;;;;;;6107081;23;20018;-96
2022/07/05 06:24:45;;;;;;;6.43;0.90;;;16.90;99.90;;;;;;6104019;23;20028;-96
2022/07/05 06:27:10;;;;;;;7.35;1.27;;;17.00;99.90;;;;;;6104186;23;20022;-96
2022/07/05 06:29:36;;;;;;;4.43;1.20;;;17.10;99.90;;;;;;6103933;23;20017;-96
2022/07/05 06:32:03;;;;;;;7.95;1.63;;;17.10;99.90;;;;;;6106530;23;20013;-96
2022/07/05 06:34:29;;;;;;;7.65;1.45;;;17.20;99.90;;;;;;6103737;23;20346;-96
2022/07/05 06:36:54;;;;;;;5.40;1.05;;;17.20;99.90;;;;;;6103534;23;20018;-96
2022/07/05 06:39:20;;;;;;;6.82;1.48;;;17.30;99.90;;;;;;6102590;23;20549;-96
2022/07/05 06:41:46;;;;;;;9.98;1.38;;;17.40;99.90;;;;;;6105787;23;20446;-96
2022/07/05 06:44:12;;;;;;;7.65;1.20;;;17.50;99.90;;;;;;6129526;23;20060;-96
2022/07/05 06:46:38;;;;;;;5.55;1.35;;;17.50;99.90;;;;;;6104647;23;20014;-96
2022/07/05 06:49:03;;;;;;;8.73;1.15;;;17.60;99.90;;;;;;6107273;23;20032;-96
2022/07/05 06:51:29;;;;;;;6.60;1.20;;;17.60;99.90;;;;;;6114895;23;20501;-96
2022/07/05 06:53:55;;;;;;;3.65;0.85;;;17.80;99.90;;;;;;6109055;23;20045;-96
2022/07/05 06:56:21;;;;;;;7.43;0.90;;;17.90;99.90;;;;;;6104193;23;20098;-96
2022/07/05 06:58:47;;;;;;;13.23;1.67;;;17.90;99.90;;;;;;6108595;23;20018;-96
2022/07/05 07:01:16;;;;;;;5.75;1.00;;;17.90;99.90;;;;;;6100928;23;20020;-96
2022/07/05 07:03:42;;;;;;;6.53;0.80;;;18.10;99.90;;;;;;6103945;23;20406;-96
2022/07/05 07:06:07;;;;;;;10.40;1.20;;;18.20;99.90;;;;;;6105369;23;20060;-96
2022/07/05 07:11:18;;;;;;;7.15;1.05;;;18.40;99.90;;;;;;6127407;23;20105;-96
2022/07/05 07:13:44;;;;;;;6.78;0.70;;;18.40;99.90;;;;;;6103031;23;20104;-96
2022/07/05 07:16:09;;;;;;;4.97;0.90;;;18.20;99.90;;;;;;6100615;23;20126;-96
2022/07/05 07:18:35;;;;;;;3.72;0.60;;;18.10;99.90;;;;;;6100243;23;20029;-96
2022/07/05 07:21:01;;;;;;;10.48;0.98;;;18.10;99.90;;;;;;6100242;23;20088;-96
2022/07/05 07:23:27;;;;;;;3.55;0.57;;;18.30;99.90;;;;;;6105483;23;20070;-96
2022/07/05 07:25:52;;;;;;;3.97;0.50;;;18.30;99.90;;;;;;6103973;23;20074;-96
2022/07/05 07:28:18;;;;;;;8.88;0.90;;;18.40;99.90;;;;;;6102637;23;20053;-96
2022/07/05 07:30:44;;;;;;;5.95;0.85;;;18.50;99.90;;;;;;6105739;23;20023;-96
2022/07/05 07:33:10;;;;;;;6.53;0.73;;;18.90;99.90;;;;;;6103215;23;20053;-96
2022/07/05 07:35:35;;;;;;;11.90;0.68;;;19.30;99.90;;;;;;6105059;23;20017;-96
2022/07/05 07:38:01;;;;;;;6.30;0.98;;;19.50;99.90;;;;;;6102156;23;20515;-96
2022/07/05 07:40:27;;;;;;;6.70;1.10;;;19.50;99.90;;;;;;6105593;23;20018;-96
2022/07/05 07:42:53;;;;;;;2.90;0.60;;;19.40;99.90;;;;;;6108949;23;20022;-96
2022/07/05 07:45:18;;;;;;;4.38;0.70;;;19.40;99.90;;;;;;6103420;23;20316;-96
2022/07/05 07:47:45;;;;;;;6.00;0.80;;;19.20;99.90;;;;;;6106810;23;20018;-96
2022/07/05 07:50:11;;;;;;;4.22;0.82;;;19.00;99.90;;;;;;6105273;23;20036;-96
2022/07/05 07:55:48;;;;;;;4.63;0.70;;;18.80;99.90;;;;;;6147887;23;20081;-96
2022/07/05 07:58:14;;;;;;;4.30;0.80;;;19.00;99.90;;;;;;6105820;23;20056;-96
2022/07/05 08:00:40;;;;;;;3.28;0.55;;;19.00;99.90;;;;;;6102802;23;20342;-96
2022/07/05 08:03:06;;;;;;;2.13;0.50;;;18.90;99.90;;;;;;6103158;23;20009;-96
2022/07/05 08:05:31;;;;;;;8.15;1.00;;;18.90;99.90;;;;;;6086577;23;20091;-96
2022/07/05 08:10:34;;;;;;;7.72;1.17;;;19.20;99.90;;;;;;6274427;22;20058;-90
2022/07/05 08:13:01;;;;;;;4.63;0.60;;;19.20;99.90;;;;;;6117298;22;20020;-89
2022/07/05 08:15:30;;;;;;;5.75;0.57;;;19.20;99.90;;;;;;6116997;22;20062;-89
2022/07/05 08:26:47;;;;;;;5.93;0.50;;;18.70;99.90;;;;;;6141708;22;20030;-89
2022/07/05 08:29:13;;;;;;;5.03;0.82;;;18.90;99.90;;;;;;6115121;22;20452;-89
2022/07/05 08:31:42;;;;;;;3.90;0.75;;;18.90;99.90;;;;;;6117392;22;20430;-89
2022/07/05 08:34:08;;;;;;;8.38;0.73;;;19.00;99.90;;;;;;6218747;22;20019;-90
2022/07/05 08:36:34;;;;;;;4.38;0.80;;;19.10;99.90;;;;;;6117527;22;20022;-89
2022/07/05 08:39:00;;;;;;;3.80;0.90;;;19.30;99.90;;;;;;6117556;22;20107;-88
2022/07/05 08:41:26;;;;;;;5.45;0.60;;;19.40;99.90;;;;;;6117287;22;20016;-89
2022/07/05 08:43:52;;;;;;;4.70;0.70;;;19.60;99.90;;;;;;6116574;22;20053;-89
2022/07/05 08:46:18;;;;;;;5.07;0.55;;;19.70;99.90;;;;;;6117524;22;20022;-88
2022/07/05 08:48:48;;;;;;;6.35;0.88;;;19.70;99.90;;;;;;6140452;22;20062;-88
2022/07/05 08:51:21;;;;;;;6.22;0.63;;;19.80;99.90;;;;;;6116103;22;20012;-89
2022/07/05 08:53:48;;;;;;;2.75;0.40;;;19.80;99.90;;;;;;6116757;22;20441;-88
2022/07/05 08:56:20;;;;;;;5.30;0.85;;;19.70;99.90;;;;;;6116664;22;20081;-88
2022/07/05 08:58:46;;;;;;;5.90;0.90;;;19.60;99.90;;;;;;6116843;22;20020;-89
2022/07/05 09:01:25;;;;;;;5.28;0.80;;;19.60;99.90;;;;;;6117015;22;20312;-89
2022/07/05 09:03:51;;;;;;;3.85;0.80;;;19.70;99.90;;;;;;6116395;22;20085;-89
2022/07/05 09:06:20;;;;;;;5.03;0.88;;;19.80;99.90;;;;;;6117451;22;20456;-88
2022/07/05 09:08:50;;;;;;;4.75;0.70;;;19.90;99.90;;;;;;6103637;23;20089;-89
2022/07/05 09:11:18;;;;;;;2.92;0.63;;;20.00;99.90;;;;;;6125721;23;20059;-89
2022/07/05 09:13:50;;;;;;;4.20;0.80;;;20.30;99.90;;;;;;6125695;23;20475;-88
2022/07/05 09:16:16;;;;;;;4.93;0.68;;;20.60;99.90;;;;;;6126423;23;20118;-89
2022/07/05 09:18:44;;;;;;;5.45;0.75;;;21.00;99.90;;;;;;6123980;23;20453;-89
2022/07/05 09:21:19;;;;;;;3.97;0.70;;;21.40;99.90;;;;;;6126603;23;20396;-89
2022/07/05 09:23:58;;;;;;;5.47;0.75;;;21.50;99.90;;;;;;6125772;23;20105;-88
2022/07/05 09:26:36;;;;;;;3.47;0.70;;;21.60;99.90;;;;;;6124764;23;20017;-88
2022/07/05 09:29:06;;;;;;;4.80;0.68;;;21.50;99.90;;;;;;6124660;23;20040;-89
2022/07/05 09:31:34;;;;;;;3.80;0.50;;;21.30;99.90;;;;;;6124770;23;20021;-89
2022/07/05 09:34:06;;;;;;;3.15;0.57;;;21.20;99.90;;;;;;6124136;23;20160;-89
2022/07/05 09:36:53;;;;;;;4.00;0.50;;;21.10;99.90;;;;;;6125687;23;20023;-88
2022/07/05 09:39:31;;;;;;;6.38;0.80;;;21.10;99.90;;;;;;6124359;23;20382;-88
2022/07/05 09:42:22;;;;;;;6.82;0.93;;;21.30;99.90;;;;;;6126221;23;20506;-89
2022/07/05 09:44:50;;;;;;;6.88;1.20;;;21.30;99.90;;;;;;6125719;23;20024;-89
2022/07/05 09:47:19;;;;;;;4.20;0.70;;;21.10;99.90;;;;;;6125248;23;20020;-88
2022/07/05 09:49:47;;;;;;;9.25;0.85;;;20.70;99.90;;;;;;6124299;23;20040;-88
2022/07/05 09:52:30;;;;;;;6.93;0.95;;;20.40;99.90;;;;;;6125262;23;20461;-88
2022/07/05 09:55:01;;;;;;;;;;;20.10;99.90;;;;;;6126249;23;20035;-89
2022/07/05 09:57:27;;;;;;;4.78;0.80;;;19.90;99.90;;;;;;6125738;23;19981;-89
2022/07/05 10:00:01;;;;;;;4.00;0.80;;;19.80;99.90;;;;;;6125500;23;20425;-89
2022/07/05 10:02:43;;;;;;;6.65;0.85;;;19.80;99.90;;;;;;6125590;23;20017;-89
2022/07/05 10:05:30;;;;;;;5.85;0.70;;;19.90;99.90;;;;;;6125128;23;20437;-90
2022/07/05 10:07:58;;;;;;;6.80;1.23;;;20.10;99.90;;;;;;6125697;23;20122;-89
2022/07/05 10:10:26;;;;;;;4.85;0.80;;;20.40;99.90;;;;;;6125031;23;20090;-88
2022/07/05 10:12:55;;;;;;;3.42;0.70;;;20.60;99.90;;;;;;6125712;23;20052;-90
2022/07/05 10:15:33;;;;;;;9.10;1.15;;;20.80;99.90;;;;;;6124166;23;20161;-88
2022/07/05 10:18:03;;;;;;;5.75;0.75;;;20.90;99.90;;;;;;6125547;23;20092;-89
2022/07/05 10:20:41;;;;;;;6.78;0.70;;;20.90;99.90;;;;;;6125056;23;20013;-89
2022/07/05 10:23:16;;;;;;;4.90;0.70;;;20.90;99.90;;;;;;6125218;23;20535;-89
2022/07/05 10:25:48;;;;;;;6.43;0.93;;;21.00;99.90;;;;;;6125284;23;20031;-89
2022/07/05 10:28:16;;;;;;;6.97;1.13;;;21.20;99.90;;;;;;6125365;23;20652;-89
2022/07/05 10:30:45;;;;;;;3.45;0.47;;;21.30;99.90;;;;;;6125721;23;20098;-89
2022/07/05 10:33:14;;;;;;;3.72;0.85;;;21.40;99.90;;;;;;6125053;23;20223;-89
2022/07/05 10:35:43;;;;;;;17.33;1.63;;;21.30;99.90;;;;;;6124200;23;20052;-89
2022/07/05 10:38:10;;;;;;;6.50;0.63;;;21.10;99.90;;;;;;6125740;23;20025;-89
2022/07/05 10:40:38;;;;;;;5.22;0.68;;;20.90;99.90;;;;;;6124613;23;20013;-89
2022/07/05 10:43:06;;;;;;;5.50;0.85;;;20.70;99.90;;;;;;6124528;23;20036;-89
2022/07/05 10:45:35;;;;;;;5.22;0.70;;;20.80;99.90;;;;;;6124229;23;20020;-88
2022/07/05 10:48:10;;;;;;;7.43;1.85;;;20.80;99.90;;;;;;6125049;23;20021;-88
2022/07/05 10:50:50;;;;;;;5.45;0.60;;;20.80;99.90;;;;;;6124268;23;20017;-89
2022/07/05 10:53:21;;;;;;;5.65;0.90;;;21.00;99.90;;;;;;6124823;23;20017;-89
2022/07/05 10:55:55;;;;;;;2.88;0.50;;;21.20;99.90;;;;;;6124338;23;20021;-88
2022/07/05 10:58:28;;;;;;;6.72;0.60;;;21.50;99.90;;;;;;6124364;23;20172;-89
2022/07/05 11:01:18;;;;;;;7.43;1.05;;;21.90;99.90;;;;;;6124852;23;20082;-89
2022/07/05 11:03:49;;;;;;;6.05;0.70;;;22.40;99.90;;;;;;6123836;23;20047;-88
2022/07/05 11:06:19;;;;;;;7.50;0.90;;;22.50;99.90;;;;;;6124848;23;20021;-89
2022/07/05 11:09:09;;;;;;;4.13;1.00;;;22.40;99.90;;;;;;6125226;23;20434;-89
2022/07/05 11:11:37;;;;;;;3.95;0.68;;;22.10;99.90;;;;;;6147732;23;20107;-89
2022/07/05 11:14:06;;;;;;;5.30;0.90;;;21.70;99.90;;;;;;6125925;23;20265;-89
2022/07/05 11:16:41;;;;;;;6.35;0.70;;;21.40;99.90;;;;;;6125271;23;20054;-87
2022/07/05 11:19:13;;;;;;;2.45;0.40;;;21.40;99.90;;;;;;6124310;23;20109;-88
2022/07/05 11:21:58;;;;;;;3.60;0.65;;;21.30;99.90;;;;;;6126142;23;20090;-89
2022/07/05 11:24:30;;;;;;;9.88;1.00;;;21.10;99.90;;;;;;6125294;23;20025;-89
2022/07/05 11:27:09;;;;;;;7.95;1.10;;;21.00;99.90;;;;;;6128537;23;20013;-88
2022/07/05 11:29:42;;;;;;;6.70;0.82;;;20.90;99.90;;;;;;6128025;23;20025;-89
2022/07/05 11:32:19;;;;;;;6.80;0.80;;;21.00;99.90;;;;;;6126446;23;20052;-89
2022/07/05 11:34:47;;;;;;;4.45;0.80;;;21.00;99.90;;;;;;6126994;23;20021;-87
2022/07/05 11:37:14;;;;;;;4.03;0.77;;;21.20;99.90;;;;;;6126135;23;20018;-88
2022/07/05 11:39:41;;;;;;;5.10;0.75;;;21.40;99.90;;;;;;6125838;23;20537;-89
2022/07/05 11:42:09;;;;;;;5.78;0.80;;;21.80;99.90;;;;;;6125989;23;20372;-89
2022/07/05 11:44:49;;;;;;;4.60;0.60;;;22.10;99.90;;;;;;6126501;23;20024;-89
2022/07/05 11:47:16;;;;;;;3.70;0.70;;;22.30;99.90;;;;;;6125319;23;20052;-88
2022/07/05 11:50:05;;;;;;;8.02;0.88;;;22.40;99.90;;;;;;6124939;23;20073;-89
2022/07/05 11:52:36;;;;;;;5.50;0.70;;;22.10;99.90;;;;;;6125356;23;20025;-88
2022/07/05 11:55:10;;;;;;;6.50;0.82;;;21.80;99.90;;;;;;6125469;23;20442;-88
2022/07/05 11:57:37;;;;;;;9.25;1.20;;;21.40;99.90;;;;;;6125594;23;20024;-88
2022/07/05 12:00:10;;;;;;;8.75;1.02;;;21.00;99.90;;;;;;6125020;23;20398;-88
2022/07/05 12:02:46;;;;;;;8.48;1.77;;;20.50;99.90;;;;;;6126007;23;20013;-88
2022/07/05 12:05:24;;;;;;;4.55;0.82;;;20.30;99.90;;;;;;6124471;23;20025;-88
2022/07/05 12:07:52;;;;;;;7.20;0.90;;;20.00;99.90;;;;;;6125081;23;20017;-87
2022/07/05 12:13:08;;;;;;;10.00;1.02;;;19.60;99.90;;;;;;6149007;23;20032;-88
2022/07/05 12:15:35;;;;;;;7.88;0.93;;;19.50;99.90;;;;;;6125109;23;20070;-88
2022/07/05 12:18:03;;;;;;;9.70;1.05;;;19.40;99.90;;;;;;6125671;23;20060;-87
2022/07/05 12:20:31;;;;;;;11.75;1.40;;;19.30;99.90;;;;;;6123799;23;20086;-88
2022/07/05 12:22:58;;;;;;;9.30;1.08;;;19.20;99.90;;;;;;6150504;23;20040;-88
2022/07/05 12:25:29;;;;;;;6.60;0.93;;;19.00;99.90;;;;;;6124749;23;20041;-88
2022/07/05 12:28:01;;;;;;;4.47;0.80;;;18.90;99.90;;;;;;6125649;23;20024;-87
2022/07/05 12:30:29;;;;;;;5.68;0.90;;;18.90;99.90;;;;;;6124909;23;20028;-88
2022/07/05 12:33:12;;;;;;;7.10;1.10;;;19.10;99.90;;;;;;6125628;23;20062;-89
2022/07/05 12:35:42;;;;;;;6.43;0.88;;;19.20;99.90;;;;;;6149845;23;20050;-89
2022/07/05 12:38:14;;;;;;;3.10;0.55;;;19.40;99.90;;;;;;6125137;23;20090;-89
2022/07/05 12:40:48;;;;;;;4.65;1.00;;;19.60;99.90;;;;;;6125995;23;20040;-88
2022/07/05 12:43:19;;;;;;;5.82;1.20;;;19.60;99.90;;;;;;6124421;23;20025;-88
2022/07/05 12:46:01;;;;;;;8.70;1.00;;;19.80;99.90;;;;;;6125568;23;20017;-88
2022/07/05 12:48:32;;;;;;;3.97;0.77;;;19.90;99.90;;;;;;6123672;23;20122;-87
2022/07/05 12:50:58;;;;;;;2.75;0.60;;;20.10;99.90;;;;;;6126248;23;20070;-88
2022/07/05 12:58:59;;;;;;;8.20;0.88;;;20.10;99.90;;;;;;6150029;23;20025;-88
2022/07/05 13:01:34;;;;;;;5.30;0.75;;;20.10;99.90;;;;;;6124603;23;20021;-88
2022/07/05 13:04:08;;;;;;;5.22;0.82;;;20.10;99.90;;;;;;6123811;23;20444;-88
2022/07/05 13:06:41;;;;;;;3.38;0.65;;;20.00;99.90;;;;;;6124778;23;20096;-87
2022/07/05 13:09:08;;;;;;;8.73;0.82;;;20.00;99.90;;;;;;6124676;23;20016;-88
2022/07/05 13:11:34;;;;;;;5.65;0.88;;;19.80;99.90;;;;;;6124595;23;20032;-88
2022/07/05 13:14:02;;;;;;;5.57;0.90;;;19.60;99.90;;;;;;6125596;23;20020;-88
2022/07/05 13:16:28;;;;;;;4.60;0.60;;;19.50;99.90;;;;;;6124127;23;20053;-87
2022/07/05 13:18:54;;;;;;;3.38;0.60;;;19.50;99.90;;;;;;6149068;23;20024;-88
2022/07/05 13:21:19;;;;;;;8.65;0.80;;;19.50;99.90;;;;;;6124590;23;20024;-87